Time;durP1;ratioP1;P1;durP2;ratioP2;P2;SDS_P1;SDS_P2;PMS_P1;PMS_P2;Temp;Humidity;BMP_temperature;BMP_pressure;BME280_temperature;BME280_humidity;BME280_pressure;Samples;Min_cycle;Max_cycle;Signal;HPM_P1;HPM_P2
2023/05/18 00:00:13;;;;;;;2.80;0.77;;;21.90;33.60;;;;;;5063537;28;20032;-60
2023/05/18 00:02:39;;;;;;;2.22;0.93;;;21.90;33.60;;;;;;5060668;28;20448;-56
2023/05/18 00:05:07;;;;;;;2.75;0.85;;;21.90;33.60;;;;;;5064953;28;20124;-57
2023/05/18 00:07:32;;;;;;;2.13;0.90;;;21.90;33.50;;;;;;5061893;28;20025;-58
2023/05/18 00:09:59;;;;;;;2.13;0.80;;;21.90;33.50;;;;;;5061456;28;20162;-58
2023/05/18 00:12:25;;;;;;;1.70;0.80;;;21.90;33.50;;;;;;5062230;28;20044;-60
2023/05/18 00:14:51;;;;;;;1.77;0.80;;;21.90;33.50;;;;;;5045821;28;20099;-55
2023/05/18 00:17:17;;;;;;;2.90;0.95;;;21.90;33.50;;;;;;5060163;28;20089;-58
2023/05/18 00:19:45;;;;;;;2.00;1.00;;;21.90;33.50;;;;;;5043493;28;20047;-60
2023/05/18 00:22:16;;;;;;;2.13;0.88;;;21.90;33.50;;;;;;5063597;28;20028;-58
2023/05/18 00:24:43;;;;;;;2.60;0.80;;;21.90;33.50;;;;;;5061857;28;20040;-58
2023/05/18 00:27:08;;;;;;;3.53;0.80;;;21.90;33.50;;;;;;5062732;28;20028;-59
2023/05/18 00:29:34;;;;;;;3.97;1.02;;;21.90;33.50;;;;;;5062124;28;20417;-60
2023/05/18 00:32:00;;;;;;;2.08;1.08;;;21.90;33.50;;;;;;5061582;28;20366;-57
2023/05/18 00:34:26;;;;;;;3.30;0.70;;;21.90;33.50;;;;;;5063346;28;20052;-57
2023/05/18 00:36:51;;;;;;;4.95;1.00;;;21.90;33.50;;;;;;5061008;28;20514;-58
2023/05/18 00:39:17;;;;;;;1.92;0.80;;;21.90;33.50;;;;;;5045324;28;20051;-59
2023/05/18 00:41:43;;;;;;;2.53;0.88;;;21.90;33.50;;;;;;5060787;28;20029;-58
2023/05/18 00:44:09;;;;;;;2.10;0.80;;;21.90;33.50;;;;;;5061783;28;20048;-60
2023/05/18 00:46:35;;;;;;;1.67;0.80;;;21.80;33.40;;;;;;5042215;28;20123;-59
2023/05/18 00:49:01;;;;;;;2.95;0.60;;;21.80;33.40;;;;;;5062262;28;20036;-56
2023/05/18 00:51:27;;;;;;;5.15;0.80;;;21.80;33.40;;;;;;5043907;28;20036;-59
2023/05/18 00:53:55;;;;;;;1.42;0.65;;;21.80;33.50;;;;;;5060876;28;20035;-57
2023/05/18 00:56:25;;;;;;;2.67;0.80;;;21.80;33.50;;;;;;5061187;28;20048;-58
2023/05/18 00:58:55;;;;;;;2.72;0.80;;;21.80;33.60;;;;;;5044397;28;20033;-58
2023/05/18 01:01:28;;;;;;;2.08;0.73;;;21.80;33.50;;;;;;5042271;28;20456;-60
2023/05/18 01:03:56;;;;;;;1.88;0.80;;;21.80;33.60;;;;;;5041935;28;20111;-57
2023/05/18 01:06:25;;;;;;;2.22;0.93;;;21.80;33.50;;;;;;5045644;28;20029;-59
2023/05/18 01:08:54;;;;;;;3.22;1.00;;;21.80;33.50;;;;;;5060890;28;20079;-58
2023/05/18 01:11:32;;;;;;;1.95;1.00;;;21.80;33.50;;;;;;5060975;28;20036;-59
2023/05/18 01:14:35;;;;;;;2.10;0.70;;;21.80;33.50;;;;;;5060969;28;20095;-59
2023/05/18 01:17:20;;;;;;;1.40;0.80;;;21.80;33.40;;;;;;5022084;28;20075;-57
2023/05/18 01:19:49;;;;;;;1.90;0.82;;;21.80;33.40;;;;;;5045479;28;20043;-56
2023/05/18 01:22:33;;;;;;;1.65;0.80;;;21.80;33.40;;;;;;5042469;28;20028;-59
2023/05/18 01:25:13;;;;;;;2.40;0.70;;;21.80;33.40;;;;;;5042360;28;20060;-59
2023/05/18 01:27:45;;;;;;;2.03;0.73;;;21.80;34.00;;;;;;5040412;28;20032;-55
2023/05/18 01:30:15;;;;;;;1.55;0.93;;;21.80;33.30;;;;;;5042675;28;20029;-58
2023/05/18 01:32:45;;;;;;;1.70;0.70;;;21.80;33.30;;;;;;5041718;28;20086;-56
2023/05/18 01:35:11;;;;;;;2.03;0.77;;;21.70;33.30;;;;;;5025365;28;20045;-58
2023/05/18 01:37:37;;;;;;;2.03;0.85;;;21.70;33.20;;;;;;5060864;28;20055;-58
2023/05/18 01:40:05;;;;;;;3.40;1.25;;;21.80;33.20;;;;;;5058382;28;20071;-57
2023/05/18 01:42:36;;;;;;;2.38;1.20;;;21.70;33.20;;;;;;5043274;28;20039;-55
2023/05/18 01:45:10;;;;;;;2.17;0.65;;;21.70;33.20;;;;;;5043879;28;20040;-56
2023/05/18 01:47:38;;;;;;;2.30;0.88;;;21.70;33.20;;;;;;5058454;28;20025;-58
2023/05/18 01:50:12;;;;;;;2.33;0.90;;;21.70;33.20;;;;;;5057083;28;20128;-60
2023/05/18 01:52:56;;;;;;;1.52;0.80;;;21.70;33.10;;;;;;5061414;28;20045;-56
2023/05/18 01:55:25;;;;;;;1.65;0.80;;;21.70;33.10;;;;;;5062740;28;20410;-60
2023/05/18 01:57:52;;;;;;;3.92;1.10;;;21.70;33.10;;;;;;5061677;28;20124;-61
2023/05/18 02:00:21;;;;;;;2.10;1.00;;;21.70;33.10;;;;;;5039644;28;20087;-58
2023/05/18 02:02:47;;;;;;;3.30;0.90;;;21.70;33.10;;;;;;5042397;28;20056;-59
2023/05/18 02:05:16;;;;;;;3.20;1.00;;;21.70;33.10;;;;;;5041598;28;20028;-58
2023/05/18 02:07:46;;;;;;;2.33;1.10;;;21.70;33.10;;;;;;5029906;28;20079;-58
2023/05/18 02:10:12;;;;;;;1.70;0.90;;;21.70;33.10;;;;;;5042570;28;20025;-57
2023/05/18 02:12:38;;;;;;;3.55;1.35;;;21.60;33.10;;;;;;5041040;28;20036;-53
2023/05/18 02:15:05;;;;;;;2.10;1.00;;;21.70;33.10;;;;;;5042249;28;20489;-56
2023/05/18 02:17:32;;;;;;;3.03;0.90;;;21.60;33.10;;;;;;5041142;28;20467;-60
2023/05/18 02:19:58;;;;;;;2.05;1.00;;;21.60;33.00;;;;;;5059797;28;20060;-55
2023/05/18 02:22:24;;;;;;;2.38;0.82;;;21.60;33.10;;;;;;5061412;28;20075;-58
2023/05/18 02:24:50;;;;;;;3.33;0.90;;;21.60;33.10;;;;;;5041919;28;20033;-54
2023/05/18 02:27:16;;;;;;;2.47;0.77;;;21.60;33.10;;;;;;5043987;28;20153;-51
2023/05/18 02:29:42;;;;;;;2.50;0.93;;;21.60;33.00;;;;;;5060422;28;20033;-54
2023/05/18 02:32:08;;;;;;;2.47;0.70;;;21.60;33.10;;;;;;5040084;28;20036;-59
2023/05/18 02:34:37;;;;;;;2.33;0.90;;;21.70;33.10;;;;;;5059823;28;20039;-56
2023/05/18 02:37:03;;;;;;;3.63;1.00;;;21.60;33.10;;;;;;5059307;28;20158;-57
2023/05/18 02:39:29;;;;;;;2.90;0.80;;;21.60;33.10;;;;;;5041868;28;20045;-55
2023/05/18 02:41:55;;;;;;;3.25;1.20;;;21.60;33.00;;;;;;5044125;28;20421;-56
2023/05/18 02:44:21;;;;;;;1.67;0.80;;;21.60;33.00;;;;;;5041408;28;20048;-58
2023/05/18 02:46:47;;;;;;;2.45;0.77;;;21.60;33.00;;;;;;5040258;28;20017;-54
2023/05/18 02:49:13;;;;;;;2.83;1.00;;;21.60;33.00;;;;;;5040461;28;20028;-59
2023/05/18 02:51:40;;;;;;;1.63;0.80;;;21.60;32.90;;;;;;5042870;28;20089;-55
2023/05/18 02:54:06;;;;;;;1.50;0.60;;;21.60;32.90;;;;;;5044863;28;20491;-57
2023/05/18 02:56:34;;;;;;;1.63;0.80;;;21.60;32.90;;;;;;5044702;28;20291;-57
2023/05/18 02:59:10;;;;;;;1.08;0.57;;;21.60;32.90;;;;;;5045025;28;20037;-56
2023/05/18 03:01:39;;;;;;;1.92;0.77;;;21.50;32.90;;;;;;5045424;28;20098;-55
2023/05/18 03:04:06;;;;;;;1.70;0.57;;;21.60;33.00;;;;;;5046282;28;20055;-58
2023/05/18 03:06:35;;;;;;;1.75;0.82;;;21.60;32.90;;;;;;5045524;28;20067;-57
2023/05/18 03:09:01;;;;;;;2.17;0.70;;;21.60;32.90;;;;;;5040901;28;20040;-58
2023/05/18 03:11:40;;;;;;;2.60;0.95;;;21.50;32.90;;;;;;5045337;28;20034;-57
2023/05/18 03:14:06;;;;;;;3.63;1.05;;;21.50;32.80;;;;;;5046723;28;20138;-58
2023/05/18 03:16:31;;;;;;;1.23;0.68;;;21.50;32.80;;;;;;5061540;28;20094;-55
2023/05/18 03:18:57;;;;;;;1.35;0.60;;;21.60;32.90;;;;;;5041862;28;20134;-54
2023/05/18 03:21:32;;;;;;;1.83;0.73;;;21.50;32.90;;;;;;5047032;28;20061;-58
2023/05/18 03:23:59;;;;;;;2.33;0.90;;;21.50;32.90;;;;;;5046696;28;20068;-53
2023/05/18 03:26:25;;;;;;;2.97;0.80;;;21.50;32.90;;;;;;5044825;28;20040;-57
2023/05/18 03:28:52;;;;;;;2.58;0.80;;;21.50;32.90;;;;;;5062461;28;20452;-55
2023/05/18 03:31:17;;;;;;;1.67;0.82;;;21.50;32.90;;;;;;5062978;28;20030;-56
2023/05/18 03:33:43;;;;;;;2.33;0.82;;;21.50;32.90;;;;;;5060229;28;20025;-55
2023/05/18 03:36:11;;;;;;;2.65;0.80;;;21.50;32.90;;;;;;5037918;28;20020;-58
2023/05/18 03:38:37;;;;;;;3.47;0.90;;;21.50;32.90;;;;;;5044923;28;20112;-57
2023/05/18 03:41:08;;;;;;;2.25;0.90;;;21.50;32.90;;;;;;5043656;28;20025;-57
2023/05/18 03:43:34;;;;;;;3.67;1.08;;;21.50;32.90;;;;;;5042326;28;20041;-54
2023/05/18 03:46:00;;;;;;;2.05;0.85;;;21.50;32.90;;;;;;5043487;28;20032;-51
2023/05/18 03:48:26;;;;;;;1.60;0.80;;;21.50;32.90;;;;;;5043179;28;20133;-55
2023/05/18 03:50:52;;;;;;;1.98;0.70;;;21.50;32.80;;;;;;5063690;28;20021;-57
2023/05/18 03:53:20;;;;;;;1.90;0.85;;;21.50;32.90;;;;;;5041200;28;20421;-58
2023/05/18 03:55:48;;;;;;;1.50;0.80;;;21.50;32.80;;;;;;5044836;28;20024;-54
2023/05/18 03:58:14;;;;;;;2.42;0.90;;;21.50;32.80;;;;;;5044595;28;20425;-57
2023/05/18 04:00:41;;;;;;;2.70;0.80;;;21.50;32.80;;;;;;5063954;28;20025;-55
2023/05/18 04:03:11;;;;;;;2.25;0.80;;;21.50;32.80;;;;;;5060124;28;20029;-56
2023/05/18 04:05:38;;;;;;;2.45;0.77;;;21.50;32.80;;;;;;5060772;28;20029;-58
2023/05/18 04:08:06;;;;;;;2.70;0.93;;;21.50;32.80;;;;;;5060894;28;20064;-58
2023/05/18 04:10:32;;;;;;;2.42;0.90;;;21.50;32.80;;;;;;5059553;28;20064;-59
2023/05/18 04:12:57;;;;;;;1.42;0.60;;;21.50;32.80;;;;;;5041989;28;20075;-58
2023/05/18 04:15:23;;;;;;;2.67;1.15;;;21.50;32.80;;;;;;5042921;28;20028;-56
2023/05/18 04:17:50;;;;;;;2.03;0.95;;;21.50;32.80;;;;;;5044377;28;20040;-56
2023/05/18 04:20:17;;;;;;;2.10;0.73;;;21.50;32.80;;;;;;5060511;28;20064;-57
2023/05/18 04:22:47;;;;;;;1.88;0.70;;;21.50;32.80;;;;;;5045456;28;20120;-59
2023/05/18 04:25:14;;;;;;;1.98;0.82;;;21.50;32.80;;;;;;5045974;28;20464;-59
2023/05/18 04:27:42;;;;;;;2.47;1.02;;;21.50;32.70;;;;;;5041958;28;20029;-60
2023/05/18 04:30:12;;;;;;;2.95;0.90;;;21.50;32.70;;;;;;5042304;28;20025;-58
2023/05/18 04:32:41;;;;;;;2.90;1.10;;;21.50;32.70;;;;;;5044214;28;20021;-55
2023/05/18 04:35:09;;;;;;;3.15;0.90;;;21.50;32.70;;;;;;5043424;28;20078;-60
2023/05/18 04:37:35;;;;;;;2.63;1.00;;;21.50;32.70;;;;;;5062300;28;20116;-60
2023/05/18 04:40:06;;;;;;;2.63;1.05;;;21.50;32.70;;;;;;5043228;28;20447;-59
2023/05/18 04:42:35;;;;;;;4.88;1.00;;;21.50;32.70;;;;;;5044287;28;20420;-59
2023/05/18 04:45:02;;;;;;;3.75;0.93;;;21.50;32.70;;;;;;5043618;28;20087;-59
2023/05/18 04:47:29;;;;;;;1.38;0.70;;;21.50;32.80;;;;;;5040163;28;20076;-59
2023/05/18 04:49:55;;;;;;;2.10;0.65;;;21.50;32.80;;;;;;5042908;28;20290;-58
2023/05/18 04:52:21;;;;;;;2.45;0.93;;;21.50;32.80;;;;;;5045742;28;20035;-59
2023/05/18 04:54:47;;;;;;;2.45;0.70;;;21.50;32.80;;;;;;5060841;28;20025;-58
2023/05/18 04:57:13;;;;;;;3.00;0.90;;;21.50;32.70;;;;;;5042746;28;20375;-58
2023/05/18 04:59:41;;;;;;;2.08;0.98;;;21.50;32.70;;;;;;5043701;28;20044;-52
2023/05/18 05:02:07;;;;;;;1.75;0.63;;;21.50;32.70;;;;;;5041180;28;20128;-58
2023/05/18 05:04:33;;;;;;;2.08;0.65;;;21.50;32.60;;;;;;5042403;28;20043;-57
2023/05/18 05:06:58;;;;;;;2.60;0.80;;;21.60;32.60;;;;;;5060199;28;20111;-57
2023/05/18 05:09:24;;;;;;;2.17;0.70;;;21.60;32.60;;;;;;5043575;28;20040;-57
2023/05/18 05:11:50;;;;;;;2.17;0.70;;;21.60;32.50;;;;;;5042384;28;20181;-60
2023/05/18 05:14:16;;;;;;;2.85;0.80;;;21.60;32.60;;;;;;5060403;28;20029;-58
2023/05/18 05:16:42;;;;;;;2.72;0.88;;;21.60;32.70;;;;;;5061234;28;20032;-57
2023/05/18 05:19:07;;;;;;;1.40;0.70;;;21.60;32.70;;;;;;5062163;28;20047;-57
2023/05/18 05:21:33;;;;;;;2.17;0.80;;;21.60;32.70;;;;;;5043697;28;20040;-58
2023/05/18 05:24:03;;;;;;;2.53;0.95;;;21.60;33.20;;;;;;5041812;28;20309;-59
2023/05/18 05:26:29;;;;;;;2.75;0.70;;;21.60;32.50;;;;;;5044888;28;20039;-58
2023/05/18 05:28:55;;;;;;;3.92;0.88;;;21.60;32.50;;;;;;5044093;28;20448;-58
2023/05/18 05:31:21;;;;;;;3.55;1.10;;;21.60;32.50;;;;;;5060772;28;20309;-58
2023/05/18 05:33:47;;;;;;;1.95;0.80;;;21.70;32.50;;;;;;5059224;28;20056;-56
2023/05/18 05:36:13;;;;;;;1.95;0.77;;;21.60;32.40;;;;;;5043483;28;20029;-57
2023/05/18 05:38:38;;;;;;;4.45;0.80;;;21.60;33.00;;;;;;5043576;28;20037;-56
2023/05/18 05:41:04;;;;;;;2.63;0.80;;;21.60;32.40;;;;;;5042970;28;20111;-55
2023/05/18 05:43:30;;;;;;;1.90;0.57;;;21.60;32.30;;;;;;5041248;28;20041;-59
2023/05/18 05:45:56;;;;;;;2.95;1.23;;;21.60;32.20;;;;;;5041787;28;20037;-61
2023/05/18 05:48:22;;;;;;;2.40;0.93;;;21.70;32.30;;;;;;5041894;28;20042;-56
2023/05/18 05:50:47;;;;;;;1.63;0.57;;;21.60;32.20;;;;;;5044095;28;20097;-58
2023/05/18 05:53:18;;;;;;;2.63;0.70;;;21.60;32.10;;;;;;5025287;28;20439;-59
2023/05/18 05:55:44;;;;;;;1.95;0.60;;;21.70;32.20;;;;;;5041499;28;20052;-59
2023/05/18 05:58:13;;;;;;;2.80;0.75;;;21.70;32.20;;;;;;5040971;28;20116;-60
2023/05/18 06:00:42;;;;;;;2.03;0.70;;;21.70;32.10;;;;;;5040570;28;20399;-57
2023/05/18 06:03:08;;;;;;;3.00;0.80;;;21.70;32.10;;;;;;5038097;28;20060;-60
2023/05/18 06:05:38;;;;;;;4.43;0.77;;;21.70;32.10;;;;;;5036678;28;20021;-58
2023/05/18 06:08:07;;;;;;;1.58;0.60;;;21.70;32.10;;;;;;5041147;28;20523;-59
2023/05/18 06:10:33;;;;;;;2.65;0.88;;;21.70;32.10;;;;;;5044091;28;20056;-56
2023/05/18 06:12:59;;;;;;;3.42;0.80;;;21.70;32.00;;;;;;5043799;28;20047;-58
2023/05/18 06:15:35;;;;;;;2.60;1.00;;;21.70;32.00;;;;;;5042333;28;20063;-58
2023/05/18 06:18:01;;;;;;;2.40;0.90;;;21.70;32.00;;;;;;5044951;28;20064;-61
2023/05/18 06:20:27;;;;;;;2.30;0.90;;;21.70;32.00;;;;;;5045480;28;20363;-56
2023/05/18 06:23:11;;;;;;;3.15;0.82;;;21.70;32.00;;;;;;5042226;28;20100;-58
2023/05/18 06:25:46;;;;;;;1.85;0.80;;;21.70;31.90;;;;;;5037910;28;20155;-58
2023/05/18 06:28:40;;;;;;;2.38;0.95;;;21.70;32.00;;;;;;5008645;28;20470;-60
2023/05/18 06:31:26;;;;;;;2.63;0.80;;;21.70;32.00;;;;;;5062036;28;20131;-59
2023/05/18 06:34:01;;;;;;;;;;;21.70;32.00;;;;;;5043810;28;20384;-56
2023/05/18 06:36:27;;;;;;;2.80;0.95;;;21.70;32.00;;;;;;5021191;28;19916;-59
2023/05/18 06:38:52;;;;;;;2.88;0.70;;;21.70;32.00;;;;;;5045187;28;20458;-59
2023/05/18 06:41:18;;;;;;;2.13;0.77;;;21.70;32.10;;;;;;5043865;28;20464;-57
2023/05/18 06:43:44;;;;;;;2.58;0.80;;;21.70;32.10;;;;;;5043027;28;20396;-56
2023/05/18 06:46:37;;;;;;;4.22;0.90;;;21.70;32.00;;;;;;5058573;28;20061;-55
2023/05/18 06:49:12;;;;;;;1.50;0.80;;;21.70;32.10;;;;;;5043136;28;20082;-56
2023/05/18 06:51:38;;;;;;;3.72;0.93;;;21.70;32.10;;;;;;5042261;28;20123;-56
2023/05/18 06:54:05;;;;;;;4.78;0.85;;;21.70;32.10;;;;;;5046272;28;20497;-56
2023/05/18 06:56:31;;;;;;;2.55;0.93;;;21.80;32.20;;;;;;5064552;28;20101;-58
2023/05/18 06:58:56;;;;;;;1.23;0.55;;;21.80;32.40;;;;;;5042634;28;20048;-58
2023/05/18 07:01:23;;;;;;;1.80;0.80;;;21.80;32.60;;;;;;5043025;28;20126;-56
2023/05/18 07:03:49;;;;;;;3.05;0.68;;;21.80;32.60;;;;;;5042688;28;20402;-56
2023/05/18 07:06:15;;;;;;;1.98;0.73;;;21.80;32.70;;;;;;5060474;28;20025;-56
2023/05/18 07:08:44;;;;;;;3.30;1.10;;;21.80;32.80;;;;;;5059734;28;20021;-60
2023/05/18 07:11:09;;;;;;;2.40;0.75;;;21.80;32.90;;;;;;5063403;28;20024;-59
2023/05/18 07:13:35;;;;;;;6.47;1.05;;;21.80;32.90;;;;;;5044991;28;20029;-56
2023/05/18 07:16:01;;;;;;;1.50;0.60;;;21.80;33.00;;;;;;5062430;28;20032;-59
2023/05/18 07:18:27;;;;;;;2.72;0.70;;;21.80;33.00;;;;;;5060330;28;20083;-59
2023/05/18 07:20:52;;;;;;;2.72;0.77;;;21.80;33.00;;;;;;5064762;28;20416;-55
2023/05/18 07:23:18;;;;;;;2.60;1.08;;;21.80;33.00;;;;;;5039441;28;20037;-58
2023/05/18 07:25:44;;;;;;;2.80;0.70;;;21.80;32.90;;;;;;5047871;28;20025;-57
2023/05/18 07:28:10;;;;;;;2.15;1.00;;;21.80;32.90;;;;;;5045898;28;20456;-54
2023/05/18 07:30:35;;;;;;;3.20;0.70;;;21.80;32.90;;;;;;5062782;28;20047;-57
2023/05/18 07:33:01;;;;;;;2.50;0.73;;;21.80;32.90;;;;;;5061747;28;20335;-60
2023/05/18 07:35:27;;;;;;;1.90;0.70;;;21.80;32.90;;;;;;5058211;28;20025;-59
2023/05/18 07:37:53;;;;;;;2.95;0.90;;;21.80;32.90;;;;;;5053901;28;20138;-57
2023/05/18 07:40:19;;;;;;;1.65;0.70;;;21.80;32.90;;;;;;5054414;28;20044;-57
2023/05/18 07:42:45;;;;;;;3.15;0.77;;;21.80;32.80;;;;;;5052222;28;20059;-57
2023/05/18 07:45:11;;;;;;;3.45;1.15;;;21.80;32.80;;;;;;5035092;28;20025;-56
2023/05/18 07:47:37;;;;;;;1.90;0.82;;;21.80;32.80;;;;;;5034007;28;20535;-56
2023/05/18 07:50:03;;;;;;;2.47;0.80;;;21.80;32.80;;;;;;5055016;28;20047;-61
2023/05/18 07:52:29;;;;;;;1.98;0.80;;;21.80;32.70;;;;;;5035341;28;20447;-59
2023/05/18 07:54:56;;;;;;;2.72;0.80;;;21.80;32.70;;;;;;5036112;28;20330;-59
2023/05/18 07:57:22;;;;;;;2.97;0.88;;;21.80;32.80;;;;;;5054794;28;20047;-58
2023/05/18 07:59:48;;;;;;;2.03;0.80;;;21.80;32.90;;;;;;5055304;28;20077;-57
2023/05/18 08:02:15;;;;;;;2.42;1.10;;;21.80;33.00;;;;;;5070013;28;20108;-55
2023/05/18 08:04:41;;;;;;;2.03;0.77;;;21.80;33.10;;;;;;5062874;28;20028;-58
2023/05/18 08:07:07;;;;;;;4.15;1.02;;;21.80;33.20;;;;;;5060363;28;20028;-56
2023/05/18 08:09:33;;;;;;;1.75;0.80;;;21.80;33.20;;;;;;5054307;28;20093;-57
2023/05/18 08:12:00;;;;;;;2.97;1.10;;;21.80;33.20;;;;;;5059112;28;20434;-58
2023/05/18 08:14:25;;;;;;;1.98;0.70;;;21.80;33.30;;;;;;5061639;28;20426;-55
2023/05/18 08:16:51;;;;;;;2.10;0.93;;;21.90;33.40;;;;;;5042086;28;20043;-59
2023/05/18 08:19:17;;;;;;;2.60;0.82;;;21.90;33.50;;;;;;5063998;28;20139;-56
2023/05/18 08:21:45;;;;;;;1.92;0.80;;;21.80;33.40;;;;;;5060174;28;20044;-59
2023/05/18 08:24:10;;;;;;;2.47;0.70;;;21.90;33.50;;;;;;5061186;28;20032;-59
2023/05/18 08:26:36;;;;;;;1.90;1.00;;;21.80;33.40;;;;;;5061461;28;20059;-57
2023/05/18 08:29:08;;;;;;;3.65;1.08;;;21.80;33.50;;;;;;5045145;28;20131;-60
2023/05/18 08:31:41;;;;;;;1.73;0.80;;;21.90;33.60;;;;;;5061122;28;20122;-57
2023/05/18 08:34:07;;;;;;;2.60;1.00;;;21.90;33.60;;;;;;5059414;28;20455;-58
2023/05/18 08:36:36;;;;;;;3.70;1.08;;;21.90;33.50;;;;;;5061470;28;20025;-56
2023/05/18 08:39:02;;;;;;;2.13;0.90;;;21.90;33.50;;;;;;5044325;28;20094;-58
2023/05/18 08:41:40;;;;;;;3.03;1.10;;;21.90;33.50;;;;;;5063162;28;20106;-55
2023/05/18 08:44:15;;;;;;;4.30;0.73;;;21.90;33.50;;;;;;5061163;28;20130;-56
2023/05/18 08:46:49;;;;;;;2.50;0.90;;;21.90;33.50;;;;;;5060760;28;20036;-56
2023/05/18 08:49:19;;;;;;;;;;;21.90;33.50;;;;;;5060803;28;20033;-59
2023/05/18 08:51:53;;;;;;;2.13;0.77;;;21.90;33.50;;;;;;5061815;28;19919;-60
2023/05/18 08:54:20;;;;;;;2.20;0.70;;;21.90;33.50;;;;;;5060597;28;20033;-59
2023/05/18 08:56:48;;;;;;;1.52;0.88;;;21.90;34.10;;;;;;5064300;28;20036;-57
2023/05/18 08:59:22;;;;;;;3.92;0.80;;;21.90;33.50;;;;;;5073659;28;20072;-59
2023/05/18 09:01:48;;;;;;;3.90;0.88;;;21.90;33.50;;;;;;5069168;28;20029;-61
2023/05/18 09:04:15;;;;;;;1.70;0.85;;;21.90;33.50;;;;;;5053336;28;20028;-58
2023/05/18 09:06:41;;;;;;;1.40;0.60;;;21.90;33.40;;;;;;5035265;28;20068;-54
2023/05/18 09:09:09;;;;;;;1.77;0.73;;;21.90;33.40;;;;;;5067101;28;20150;-58
2023/05/18 09:11:35;;;;;;;2.10;0.77;;;22.00;33.40;;;;;;5073070;28;20033;-56
2023/05/18 09:14:01;;;;;;;2.17;0.90;;;22.00;33.40;;;;;;5055588;28;20408;-60
2023/05/18 09:16:28;;;;;;;1.88;0.68;;;21.90;33.30;;;;;;5055037;28;20060;-61
2023/05/18 09:19:01;;;;;;;;;;;22.00;33.40;;;;;;5061960;28;20040;-60
2023/05/18 09:21:30;;;;;;;2.22;0.80;;;22.00;33.30;;;;;;5036324;28;20007;-59
2023/05/18 09:23:55;;;;;;;2.60;0.70;;;21.90;33.30;;;;;;5063608;28;20460;-59
2023/05/18 09:26:21;;;;;;;2.35;0.95;;;22.00;33.30;;;;;;5053034;28;20029;-58
2023/05/18 09:28:51;;;;;;;3.33;0.95;;;22.00;33.30;;;;;;5068480;28;20028;-56
2023/05/18 09:31:19;;;;;;;1.33;0.73;;;22.00;33.30;;;;;;5073075;28;20040;-56
2023/05/18 09:33:46;;;;;;;1.90;0.80;;;22.00;33.30;;;;;;5061066;28;20033;-56
2023/05/18 09:36:14;;;;;;;2.85;0.75;;;22.00;33.90;;;;;;5052791;28;20077;-60
2023/05/18 09:38:45;;;;;;;1.65;0.63;;;22.00;33.30;;;;;;5052557;28;20033;-58
2023/05/18 09:41:16;;;;;;;2.63;0.90;;;22.00;33.30;;;;;;5053031;28;20115;-61
2023/05/18 09:43:46;;;;;;;1.70;1.00;;;22.00;33.30;;;;;;5064032;28;20052;-58
2023/05/18 09:46:13;;;;;;;2.00;0.90;;;22.00;33.30;;;;;;5060664;28;20390;-59
2023/05/18 09:48:47;;;;;;;2.40;0.68;;;22.00;33.20;;;;;;5059971;28;20056;-57
2023/05/18 09:51:17;;;;;;;2.22;0.70;;;22.00;33.30;;;;;;5058736;28;20025;-59
2023/05/18 09:53:48;;;;;;;3.85;1.15;;;22.00;33.30;;;;;;5053892;28;20051;-59
2023/05/18 09:56:17;;;;;;;3.88;1.10;;;22.00;33.30;;;;;;5068497;28;20115;-60
2023/05/18 09:58:43;;;;;;;1.25;0.43;;;22.00;33.40;;;;;;5067944;28;20123;-57
2023/05/18 10:01:09;;;;;;;2.13;0.90;;;22.00;33.50;;;;;;5049924;28;20119;-56
2023/05/18 10:03:37;;;;;;;1.40;0.70;;;22.00;33.60;;;;;;5052938;28;20492;-60
2023/05/18 10:06:07;;;;;;;2.45;0.90;;;22.10;33.70;;;;;;5052563;28;20111;-58
2023/05/18 10:08:36;;;;;;;2.35;0.80;;;22.10;34.30;;;;;;5055564;28;20360;-59
2023/05/18 10:11:03;;;;;;;2.15;0.88;;;22.10;33.70;;;;;;5060033;28;20036;-59
2023/05/18 10:13:31;;;;;;;2.58;0.73;;;22.10;33.80;;;;;;5052092;28;20056;-58
2023/05/18 10:16:02;;;;;;;3.03;1.02;;;22.10;33.80;;;;;;5067139;28;20102;-62
2023/05/18 10:18:35;;;;;;;2.78;1.00;;;22.10;33.90;;;;;;5058141;28;20060;-64
2023/05/18 10:21:04;;;;;;;2.50;0.90;;;22.10;33.80;;;;;;5057996;28;20025;-64
2023/05/18 10:23:33;;;;;;;3.45;0.60;;;22.10;33.80;;;;;;5052996;28;20275;-63
2023/05/18 10:26:03;;;;;;;4.22;0.90;;;22.20;33.90;;;;;;5053173;28;20029;-64
2023/05/18 10:28:37;;;;;;;1.27;0.70;;;22.20;33.80;;;;;;5070624;28;20029;-64
2023/05/18 10:31:08;;;;;;;3.97;0.88;;;22.30;33.80;;;;;;5068610;28;20321;-65
2023/05/18 10:33:36;;;;;;;3.95;0.98;;;22.30;33.60;;;;;;5057700;28;20031;-62
2023/05/18 10:36:05;;;;;;;1.77;0.90;;;22.40;33.50;;;;;;5052773;28;20420;-65
2023/05/18 10:38:41;;;;;;;2.80;0.90;;;22.50;33.40;;;;;;5052519;28;20050;-64
2023/05/18 10:41:21;;;;;;;1.80;0.60;;;22.60;33.50;;;;;;5052114;28;20083;-65
2023/05/18 10:43:53;;;;;;;2.47;0.70;;;22.80;33.50;;;;;;5069324;28;20083;-66
2023/05/18 10:46:25;;;;;;;2.30;1.00;;;22.90;33.40;;;;;;5058234;28;20175;-68
2023/05/18 10:48:53;;;;;;;2.90;0.75;;;23.00;33.40;;;;;;5038166;28;20032;-66
2023/05/18 10:51:23;;;;;;;4.50;0.90;;;23.10;33.30;;;;;;5052521;28;20025;-67
2023/05/18 10:54:00;;;;;;;2.80;0.88;;;23.20;33.30;;;;;;5056206;28;20021;-71
2023/05/18 10:56:36;;;;;;;;;;;23.30;33.30;;;;;;5063928;28;20025;-69
2023/05/18 10:59:10;;;;;;;2.80;0.77;;;23.30;33.20;;;;;;5072558;28;19982;-69
2023/05/18 11:01:40;;;;;;;3.80;0.70;;;23.40;33.10;;;;;;5054822;28;20091;-68
2023/05/18 11:04:13;;;;;;;1.88;0.60;;;23.40;33.00;;;;;;5034293;28;20401;-67
2023/05/18 11:06:41;;;;;;;3.53;0.80;;;23.50;33.00;;;;;;5057548;28;20083;-68
2023/05/18 11:09:22;;;;;;;2.40;1.05;;;23.60;33.00;;;;;;5065739;28;20435;-70
2023/05/18 11:11:57;;;;;;;1.58;0.52;;;23.60;32.80;;;;;;5051662;28;20120;-67
2023/05/18 11:14:28;;;;;;;2.05;0.80;;;23.70;33.40;;;;;;5072944;28;20024;-67
2023/05/18 11:17:25;;;;;;;2.70;0.68;;;23.70;32.70;;;;;;5047844;28;20093;-66
2023/05/18 11:20:12;;;;;;;1.95;0.77;;;23.80;32.60;;;;;;5055521;28;20064;-67
2023/05/18 11:22:56;;;;;;;2.42;0.80;;;23.80;32.60;;;;;;5040823;28;20076;-70
2023/05/18 11:25:24;;;;;;;2.15;0.70;;;23.90;32.50;;;;;;5066593;28;20393;-67
2023/05/18 11:27:56;;;;;;;2.15;0.95;;;24.00;32.50;;;;;;5063235;28;20032;-67
2023/05/18 11:30:30;;;;;;;1.35;0.80;;;24.00;32.40;;;;;;5046240;28;20060;-68
2023/05/18 11:33:12;;;;;;;1.65;0.70;;;24.00;32.30;;;;;;5061323;28;20520;-65
2023/05/18 11:35:56;;;;;;;1.52;0.60;;;24.10;32.90;;;;;;5061348;28;20025;-65
2023/05/18 11:38:42;;;;;;;2.20;0.60;;;24.10;32.20;;;;;;5034288;28;20049;-67
2023/05/18 11:41:25;;;;;;;1.33;0.52;;;24.20;32.10;;;;;;5065512;28;20111;-68
2023/05/18 11:44:20;;;;;;;2.75;0.65;;;24.20;32.10;;;;;;5040828;28;20046;-70
2023/05/18 11:46:57;;;;;;;1.92;0.70;;;24.20;32.00;;;;;;5032971;28;20068;-69
2023/05/18 11:49:44;;;;;;;3.83;0.80;;;24.30;32.00;;;;;;5043175;28;20032;-66
2023/05/18 11:52:19;;;;;;;4.03;0.90;;;24.30;31.80;;;;;;5036553;28;20109;-65
2023/05/18 11:54:51;;;;;;;1.85;0.80;;;24.30;31.60;;;;;;5042356;28;20065;-66
2023/05/18 11:57:22;;;;;;;2.60;0.70;;;24.40;31.60;;;;;;5038181;28;20025;-67
2023/05/18 11:59:54;;;;;;;3.10;0.82;;;24.40;31.50;;;;;;5042595;28;20120;-67
2023/05/18 12:02:24;;;;;;;1.15;0.57;;;24.40;31.50;;;;;;5040319;28;20036;-65
2023/05/18 12:04:55;;;;;;;1.58;0.50;;;24.40;31.40;;;;;;5038907;28;20085;-65
2023/05/18 12:07:24;;;;;;;1.90;0.65;;;24.40;31.30;;;;;;5036543;28;20036;-64
2023/05/18 12:09:50;;;;;;;2.08;0.77;;;24.50;31.30;;;;;;5035803;28;21976;-65
2023/05/18 12:12:18;;;;;;;2.42;0.60;;;24.50;31.10;;;;;;5032940;28;20068;-64
2023/05/18 12:14:54;;;;;;;2.03;0.77;;;24.60;31.10;;;;;;5036330;28;20022;-65
2023/05/18 12:17:20;;;;;;;2.08;0.80;;;24.60;30.90;;;;;;5046487;28;20064;-64
2023/05/18 12:19:48;;;;;;;2.17;0.70;;;24.60;30.90;;;;;;5043053;28;20386;-64
2023/05/18 12:22:14;;;;;;;1.92;0.68;;;24.60;30.80;;;;;;5042602;28;20040;-65
2023/05/18 12:24:42;;;;;;;1.48;0.70;;;24.60;30.80;;;;;;5039103;28;20024;-63
2023/05/18 12:27:10;;;;;;;2.45;0.98;;;24.60;30.80;;;;;;5041537;28;20025;-61
2023/05/18 12:29:40;;;;;;;2.40;0.60;;;24.60;30.70;;;;;;5043917;28;20398;-63
2023/05/18 12:32:08;;;;;;;2.53;0.93;;;24.60;30.70;;;;;;5039137;28;20124;-65
2023/05/18 12:34:34;;;;;;;4.07;0.85;;;24.60;30.70;;;;;;5038485;28;20091;-63
2023/05/18 12:37:00;;;;;;;2.42;0.77;;;24.60;30.60;;;;;;5033198;28;20377;-63
2023/05/18 12:39:25;;;;;;;2.13;0.80;;;24.60;30.60;;;;;;5031673;28;20042;-63
2023/05/18 12:41:51;;;;;;;1.58;0.75;;;24.60;30.50;;;;;;5037170;28;20021;-62
2023/05/18 12:44:17;;;;;;;1.35;0.68;;;24.60;30.50;;;;;;5048369;28;20037;-63
2023/05/18 12:46:43;;;;;;;3.70;0.60;;;24.60;30.50;;;;;;5056722;28;20429;-64
2023/05/18 12:49:09;;;;;;;2.63;0.60;;;24.70;30.60;;;;;;5056901;28;20064;-63
2023/05/18 12:51:37;;;;;;;1.50;0.60;;;24.70;30.60;;;;;;5059188;28;20108;-65
2023/05/18 12:54:05;;;;;;;1.17;0.52;;;24.70;30.60;;;;;;5056386;28;20028;-65
2023/05/18 12:56:50;;;;;;;3.05;0.95;;;24.70;30.50;;;;;;5053657;28;20037;-64